Flight Track Log - Related Links

Times and Time Zones

All times are in EDT time to prevent confusion due to time zone crossing. See the CTL13 flight status page for this flight to view local times or setup timezone preferences in your user account.


Time Position Orientation Groundspeed Altitude Reporting Facility
EDT Latitude Longitude Course Direction KTS MPH feet Rate Location/Type
Wed 06:36:04 PM 41.5336 -81.6706 344° North 129 148 1,300  Level Cleveland Center
Wed 06:37:05 PM 41.5711 -81.6850 344° North 151 174 2,000 694 Climbing Cleveland Center
Wed 06:38:05 PM 41.6125 -81.7050 340° North 153 176 2,700 694 Climbing Cleveland Center
Wed 06:39:06 PM 41.6078 -81.7578 263° West 141 162 3,400 645 Climbing Cleveland Center
Wed 06:40:06 PM 41.6011 -81.8106 260° West 141 162 4,000 347 Climbing Cleveland Center
Wed 06:41:07 PM 41.5983 -81.8686 266° West 158 182 4,100  Climbing Cleveland Center
Wed 06:42:08 PM 41.5811 -81.9211 246° West 159 183 4,000  Descending Cleveland Center
Wed 06:43:08 PM 41.5556 -81.9733 237° Southwest 159 183 4,100 50 Climbing Cleveland Center
Wed 06:44:09 PM 41.5256 -82.0197 229° Southwest 160 184 4,100  Level Cleveland Center
Wed 06:45:09 PM 41.5000 -82.0692 235° Southwest 160 184 4,100  Level Cleveland Center
Wed 06:46:10 PM 41.4744 -82.1131 232° Southwest 159 183 4,100  Level Cleveland Center
Wed 06:47:11 PM 41.4467 -82.1622 233° Southwest 159 183 4,100  Level Cleveland Center
Wed 06:48:11 PM 41.4208 -82.2114 235° Southwest 161 185 4,100  Level Cleveland Center
Wed 06:49:12 PM 41.3953 -82.2606 235° Southwest 161 185 4,100 -49 Level Cleveland Center
Wed 06:50:13 PM 41.3694 -82.3125 236° Southwest 164 189 4,000 -296 Descending Cleveland Center
Wed 06:52:35 PM 41.3192 -82.4375 242° Southwest 172 198 3,100 -265 Descending Indianapolis Center
Wed 06:53:37 PM 41.2936 -82.4908 237° Southwest 172 198 3,100  Level Indianapolis Center
Wed 06:54:39 PM 41.2678 -82.5383 234° Southwest 164 189 3,100  Level Indianapolis Center
Wed 06:55:40 PM 41.2397 -82.5833 230° Southwest 159 183 3,100 -49 Level Indianapolis Center
Wed 06:56:42 PM 41.2100 -82.6264 227° Southwest 157 181 3,000 -48 Descending Indianapolis Center
Wed 06:57:44 PM 41.1811 -82.6692 228° Southwest 155 178 3,000 49 Level Indianapolis Center
Wed 06:58:45 PM 41.1547 -82.7169 234° Southwest 159 183 3,100  Climbing Indianapolis Center
Wed 06:59:47 PM 41.1272 -82.7583 229° Southwest 152 175 3,000  Descending Indianapolis Center
Wed 07:00:49 PM 41.1050 -82.8139 242° Southwest 146 168 3,100 49 Climbing Indianapolis Center
Wed 07:01:50 PM 41.0883 -82.8664 247° West 152 175 3,100  Level Indianapolis Center
Wed 07:02:52 PM 41.0706 -82.9181 245° Southwest 154 177 3,100  Level Indianapolis Center
Wed 07:03:54 PM 41.0519 -82.9686 244° Southwest 152 175 3,100  Level Indianapolis Center
Wed 07:04:55 PM 41.0336 -83.0203 245° Southwest 152 175 3,100 49 Level Indianapolis Center
Wed 07:05:57 PM 41.0164 -83.0714 246° West 152 175 3,200  Climbing Indianapolis Center
Wed 07:06:58 PM 40.9972 -83.1222 243° Southwest 152 175 3,100 -49 Descending Indianapolis Center
Wed 07:08:00 PM 40.9769 -83.1767 244° Southwest 158 182 3,100  Level Indianapolis Center
Wed 07:09:02 PM 40.9578 -83.2308 245° Southwest 160 184 3,100  Level Indianapolis Center
Wed 07:10:03 PM 40.9433 -83.2853 251° West 158 182 3,100  Level Indianapolis Center
Wed 07:11:05 PM 40.9233 -83.3478 247° West 157 181 3,100 -48 Level Indianapolis Center
Wed 07:12:07 PM 40.8992 -83.4122 244° Southwest 150 173 3,000 -49 Descending Indianapolis Center
Wed 07:13:08 PM 40.8803 -83.4700 247° West 167 192 3,000  Level Indianapolis Center
Wed 07:14:10 PM 40.8617 -83.5222 245° Southwest 174 200 3,000 49 Level Indianapolis Center
Wed 07:15:11 PM 40.8489 -83.5592 245° Southwest 158 182 3,100 49 Climbing Indianapolis Center
Wed 07:16:13 PM 40.8306 -83.6111 245° Southwest 157 181 3,100  Level Indianapolis Center
Wed 07:17:14 PM 40.8108 -83.6617 243° Southwest 155 178 3,100  Level Indianapolis Center
Wed 07:18:16 PM 40.7931 -83.7114 245° Southwest 152 175 3,100  Level Indianapolis Center
Wed 07:19:17 PM 40.7761 -83.7600 245° Southwest 149 171 3,100 -49 Level Indianapolis Center
Wed 07:20:19 PM 40.7592 -83.8056 244° Southwest 148 170 3,000  Descending Indianapolis Center
Wed 07:22:00 PM 40.7287 -83.8886 244° Southwest  Level FlightAware Approximate
Wed 07:24:27 PM 40.6872 -84.0178 247° West 148 170 3,100  Level Indianapolis Center
Wed 07:25:34 PM 40.6703 -84.0733 248° West 149 171 3,100  Level Indianapolis Center
Wed 07:26:34 PM 40.6561 -84.1236 250° West 150 173 3,100  Level Indianapolis Center
Wed 07:27:35 PM 40.6394 -84.1736 246° West 149 171 3,100  Level Indianapolis Center
Wed 07:28:23 PM 40.6256 -84.2186 248° West 151 174 3,100  Level Indianapolis Center
Wed 07:29:00 PM 40.6707 -84.0593 247° West  Level FlightAware Approximate
Wed 07:29:30 PM 40.6089 -84.2714 247° West 151 174 3,100  Level Indianapolis Center
Wed 07:30:31 PM 40.5922 -84.3242 247° West 154 177 3,100  Level Indianapolis Center
Wed 07:31:37 PM 40.5708 -84.3817 244° Southwest 153 176 3,100  Level Indianapolis Center
Wed 07:32:38 PM 40.5542 -84.4342 247° West 155 178 3,100  Level Indianapolis Center
Wed 07:33:33 PM 40.5278 -84.4747 229° Southwest 157 181 3,100 -52 Level Indianapolis Center
Wed 07:34:33 PM 40.4992 -84.5172 228° Southwest 153 176 3,000  Descending Indianapolis Center
Wed 07:35:40 PM 40.4681 -84.5653 230° Southwest 154 177 3,100  Climbing Indianapolis Center
Wed 07:36:47 PM 40.4389 -84.6133 231° Southwest 156 180 3,000  Descending Indianapolis Center
Wed 07:37:47 PM 40.4103 -84.6558 229° Southwest 154 177 3,100 47 Climbing Indianapolis Center
Wed 07:38:54 PM 40.3789 -84.7064 231° Southwest 154 177 3,100  Level Indianapolis Center
Wed 07:39:49 PM 40.3550 -84.7414 228° Southwest 155 178 3,100  Level Indianapolis Center
Wed 07:40:49 PM 40.3261 -84.7864 230° Southwest 152 175 3,100 -49 Level Indianapolis Center
Wed 07:41:51 PM 40.2994 -84.8292 231° Southwest 151 174 3,000  Descending Indianapolis Center
Wed 07:42:51 PM 40.2708 -84.8717 229° Southwest 154 177 3,100 50 Climbing Indianapolis Center
Wed 07:43:51 PM 40.2442 -84.9144 231° Southwest 158 182 3,100 -47 Level Indianapolis Center
Wed 07:44:58 PM 40.2103 -84.9669 230° Southwest 160 184 3,000  Descending Indianapolis Center
Wed 07:45:41 PM 40.1908 -84.9969 230° Southwest 160 184 3,100 46 Climbing Indianapolis Center
Wed 07:47:09 PM 40.1531 -85.0544 229° Southwest 166 191 3,100  Level Indianapolis Center
Wed 07:48:10 PM 40.1247 -85.0975 229° Southwest 162 186 3,100  Level Indianapolis Center
Wed 07:49:11 PM 40.0906 -85.1486 229° Southwest 158 182 3,100  Level Indianapolis Center
Wed 07:50:13 PM 40.0753 -85.2000 249° West 155 178 3,100  Level Indianapolis Center
Wed 07:51:44 PM 40.0667 -85.2833 262° West 154 177 3,100  Level Indianapolis TRACON
Wed 07:52:15 PM 40.0564 -85.3075 241° Southwest 152 175 3,100  Level Indianapolis Center
Wed 07:53:17 PM 40.0444 -85.3628 254° West 155 178 3,100 49 Level Indianapolis Center
Wed 07:54:18 PM 40.0333 -85.4175 255° West 156 180 3,200  Climbing Indianapolis Center
Wed 07:55:19 PM 40.0208 -85.4728 254° West 158 182 3,100 -49 Descending Indianapolis Center
Wed 07:56:21 PM 40.0092 -85.5283 255° West 159 183 3,100  Level Indianapolis Center
Wed 07:57:22 PM 39.9967 -85.5836 254° West 159 183 3,100  Level Indianapolis Center
Wed 07:58:23 PM 39.9814 -85.6497 253° West 159 183 3,100  Level Indianapolis Center
Wed 07:59:25 PM 39.9689 -85.7033 253° West 158 182 3,100  Level Indianapolis Center
Wed 08:00:26 PM 39.9564 -85.7592 254° West 158 182 3,100  Level Indianapolis Center
Wed 08:01:27 PM 39.9439 -85.8136 253° West 159 183 3,100 -244 Level Indianapolis Center
Wed 08:02:29 PM 39.9350 -85.8708 259° West 159 183 2,600 -244 Descending Indianapolis Center
Wed 08:03:30 PM 39.9214 -85.9283 253° West 163 188 2,600 49 Level Indianapolis Center
Wed 08:04:32 PM 39.9083 -85.9806 252° West 159 183 2,700  Climbing Indianapolis Center
Wed 08:05:33 PM 39.8964 -86.0328 253° West 154 177 2,600  Descending Indianapolis Center
Wed 08:06:34 PM 39.8819 -86.0914 252° West 152 175 2,700 98 Climbing Indianapolis Center

Login

Don't have an account? Register now (free) for customized features, flight alerts, and more!